sensor_id;sensor_type;location;lat;lon;timestamp;temperature;humidity
16263;DHT22;8239;48.594;8.598;2022-07-10T00:01:49;14.00;99.90
16263;DHT22;8239;48.594;8.598;2022-07-10T00:04:16;14.00;99.90
16263;DHT22;8239;48.594;8.598;2022-07-10T00:06:44;13.90;99.90
16263;DHT22;8239;48.594;8.598;2022-07-10T00:09:14;13.90;99.90
16263;DHT22;8239;48.594;8.598;2022-07-10T00:11:41;13.80;99.90
16263;DHT22;8239;48.594;8.598;2022-07-10T00:14:08;13.80;99.90
16263;DHT22;8239;48.594;8.598;2022-07-10T00:16:35;13.70;99.90
16263;DHT22;8239;48.594;8.598;2022-07-10T00:19:02;13.70;99.90
16263;DHT22;8239;48.594;8.598;2022-07-10T00:21:29;13.60;99.90
16263;DHT22;8239;48.594;8.598;2022-07-10T00:23:56;13.60;99.90
16263;DHT22;8239;48.594;8.598;2022-07-10T00:26:25;13.50;99.90
16263;DHT22;8239;48.594;8.598;2022-07-10T00:28:52;13.50;99.90
16263;DHT22;8239;48.594;8.598;2022-07-10T00:31:19;13.50;99.90
16263;DHT22;8239;48.594;8.598;2022-07-10T00:33:46;13.50;99.90
16263;DHT22;8239;48.594;8.598;2022-07-10T00:36:13;13.50;99.90
16263;DHT22;8239;48.594;8.598;2022-07-10T00:38:40;13.60;99.90
16263;DHT22;8239;48.594;8.598;2022-07-10T00:41:07;13.70;99.90
16263;DHT22;8239;48.594;8.598;2022-07-10T00:43:54;13.70;99.90
16263;DHT22;8239;48.594;8.598;2022-07-10T00:46:22;13.80;99.90
16263;DHT22;8239;48.594;8.598;2022-07-10T00:48:50;13.90;99.90
16263;DHT22;8239;48.594;8.598;2022-07-10T00:51:19;13.90;99.90
16263;DHT22;8239;48.594;8.598;2022-07-10T00:53:48;14.00;99.90
16263;DHT22;8239;48.594;8.598;2022-07-10T00:56:16;14.00;99.90
16263;DHT22;8239;48.594;8.598;2022-07-10T00:58:46;14.10;99.90
16263;DHT22;8239;48.594;8.598;2022-07-10T01:01:14;14.10;99.90
16263;DHT22;8239;48.594;8.598;2022-07-10T01:03:42;14.20;99.90
16263;DHT22;8239;48.594;8.598;2022-07-10T01:06:09;14.20;99.90
16263;DHT22;8239;48.594;8.598;2022-07-10T01:08:36;14.30;99.90
16263;DHT22;8239;48.594;8.598;2022-07-10T01:11:03;14.30;99.90
16263;DHT22;8239;48.594;8.598;2022-07-10T01:13:30;14.30;99.90
16263;DHT22;8239;48.594;8.598;2022-07-10T01:15:58;14.30;99.90
16263;DHT22;8239;48.594;8.598;2022-07-10T01:18:26;14.20;99.90
16263;DHT22;8239;48.594;8.598;2022-07-10T01:20:55;14.20;99.90
16263;DHT22;8239;48.594;8.598;2022-07-10T01:23:22;14.10;99.90
16263;DHT22;8239;48.594;8.598;2022-07-10T01:25:50;14.10;99.90
16263;DHT22;8239;48.594;8.598;2022-07-10T01:28:17;14.00;99.90
16263;DHT22;8239;48.594;8.598;2022-07-10T01:30:44;13.90;99.90
16263;DHT22;8239;48.594;8.598;2022-07-10T01:33:11;13.80;99.90
16263;DHT22;8239;48.594;8.598;2022-07-10T01:35:39;13.70;99.90
16263;DHT22;8239;48.594;8.598;2022-07-10T01:38:07;13.60;99.90
16263;DHT22;8239;48.594;8.598;2022-07-10T01:40:34;13.50;99.90
16263;DHT22;8239;48.594;8.598;2022-07-10T01:43:01;13.50;99.90
16263;DHT22;8239;48.594;8.598;2022-07-10T01:45:28;13.40;99.90
16263;DHT22;8239;48.594;8.598;2022-07-10T01:47:55;13.40;99.90
16263;DHT22;8239;48.594;8.598;2022-07-10T01:50:22;13.30;99.90
16263;DHT22;8239;48.594;8.598;2022-07-10T01:52:49;13.30;99.90
16263;DHT22;8239;48.594;8.598;2022-07-10T01:55:18;13.30;99.90
16263;DHT22;8239;48.594;8.598;2022-07-10T01:57:45;13.40;99.90
16263;DHT22;8239;48.594;8.598;2022-07-10T02:00:12;13.40;99.90
16263;DHT22;8239;48.594;8.598;2022-07-10T02:02:39;13.40;99.90
16263;DHT22;8239;48.594;8.598;2022-07-10T02:05:07;13.50;99.90
16263;DHT22;8239;48.594;8.598;2022-07-10T02:07:33;13.60;99.90
16263;DHT22;8239;48.594;8.598;2022-07-10T02:10:00;13.60;99.90
16263;DHT22;8239;48.594;8.598;2022-07-10T02:12:28;13.60;99.90
16263;DHT22;8239;48.594;8.598;2022-07-10T02:14:55;13.60;99.90
16263;DHT22;8239;48.594;8.598;2022-07-10T02:17:25;13.60;99.90
16263;DHT22;8239;48.594;8.598;2022-07-10T02:19:52;13.60;99.90
16263;DHT22;8239;48.594;8.598;2022-07-10T02:22:19;13.60;99.90
16263;DHT22;8239;48.594;8.598;2022-07-10T02:24:46;13.70;99.90
16263;DHT22;8239;48.594;8.598;2022-07-10T02:27:12;13.70;99.90
16263;DHT22;8239;48.594;8.598;2022-07-10T02:29:41;13.70;99.90
16263;DHT22;8239;48.594;8.598;2022-07-10T02:32:08;13.80;99.90
16263;DHT22;8239;48.594;8.598;2022-07-10T02:34:35;13.80;99.90
16263;DHT22;8239;48.594;8.598;2022-07-10T02:37:02;13.90;99.90
16263;DHT22;8239;48.594;8.598;2022-07-10T02:39:29;13.90;99.90
16263;DHT22;8239;48.594;8.598;2022-07-10T02:41:56;13.90;99.90
16263;DHT22;8239;48.594;8.598;2022-07-10T02:44:23;14.00;99.90
16263;DHT22;8239;48.594;8.598;2022-07-10T02:46:52;14.00;99.90
16263;DHT22;8239;48.594;8.598;2022-07-10T02:49:19;14.10;99.90
16263;DHT22;8239;48.594;8.598;2022-07-10T02:51:46;14.10;99.90
16263;DHT22;8239;48.594;8.598;2022-07-10T02:54:12;14.10;99.90
16263;DHT22;8239;48.594;8.598;2022-07-10T02:56:39;14.20;99.90
16263;DHT22;8239;48.594;8.598;2022-07-10T02:59:06;14.10;99.90
16263;DHT22;8239;48.594;8.598;2022-07-10T03:01:33;14.10;99.90
16263;DHT22;8239;48.594;8.598;2022-07-10T03:04:02;14.20;99.90
16263;DHT22;8239;48.594;8.598;2022-07-10T03:06:29;14.20;99.90
16263;DHT22;8239;48.594;8.598;2022-07-10T03:08:56;14.20;99.90
16263;DHT22;8239;48.594;8.598;2022-07-10T03:11:23;14.20;99.90
16263;DHT22;8239;48.594;8.598;2022-07-10T03:13:50;14.20;99.90
16263;DHT22;8239;48.594;8.598;2022-07-10T03:16:17;14.10;99.90
16263;DHT22;8239;48.594;8.598;2022-07-10T03:18:45;14.00;99.90
16263;DHT22;8239;48.594;8.598;2022-07-10T03:21:13;14.00;99.90
16263;DHT22;8239;48.594;8.598;2022-07-10T03:23:40;13.90;99.90
16263;DHT22;8239;48.594;8.598;2022-07-10T03:26:07;13.80;99.90
16263;DHT22;8239;48.594;8.598;2022-07-10T03:28:34;13.80;99.90
16263;DHT22;8239;48.594;8.598;2022-07-10T03:31:01;13.70;99.90
16263;DHT22;8239;48.594;8.598;2022-07-10T03:33:28;13.60;99.90
16263;DHT22;8239;48.594;8.598;2022-07-10T03:35:55;13.50;99.90
16263;DHT22;8239;48.594;8.598;2022-07-10T03:38:24;13.50;99.90
16263;DHT22;8239;48.594;8.598;2022-07-10T03:40:51;13.40;99.90
16263;DHT22;8239;48.594;8.598;2022-07-10T03:43:18;13.30;99.90
16263;DHT22;8239;48.594;8.598;2022-07-10T03:45:45;13.20;99.90
16263;DHT22;8239;48.594;8.598;2022-07-10T03:48:12;13.20;99.90
16263;DHT22;8239;48.594;8.598;2022-07-10T03:50:39;13.10;99.90
16263;DHT22;8239;48.594;8.598;2022-07-10T03:53:06;13.00;99.90
16263;DHT22;8239;48.594;8.598;2022-07-10T03:55:35;13.00;99.90
16263;DHT22;8239;48.594;8.598;2022-07-10T03:58:01;13.00;99.90
16263;DHT22;8239;48.594;8.598;2022-07-10T04:00:29;12.90;99.90
16263;DHT22;8239;48.594;8.598;2022-07-10T04:02:59;12.90;99.90
16263;DHT22;8239;48.594;8.598;2022-07-10T04:05:27;12.90;99.90
16263;DHT22;8239;48.594;8.598;2022-07-10T04:07:55;12.90;99.90
16263;DHT22;8239;48.594;8.598;2022-07-10T04:10:23;12.90;99.90
16263;DHT22;8239;48.594;8.598;2022-07-10T04:12:51;13.00;99.90
16263;DHT22;8239;48.594;8.598;2022-07-10T04:15:19;13.00;99.90
16263;DHT22;8239;48.594;8.598;2022-07-10T04:17:46;13.10;99.90
16263;DHT22;8239;48.594;8.598;2022-07-10T04:20:14;13.10;99.90
16263;DHT22;8239;48.594;8.598;2022-07-10T04:22:41;13.20;99.90
16263;DHT22;8239;48.594;8.598;2022-07-10T04:25:09;13.30;99.90
16263;DHT22;8239;48.594;8.598;2022-07-10T04:27:36;13.30;99.90
16263;DHT22;8239;48.594;8.598;2022-07-10T04:30:06;13.50;99.90
16263;DHT22;8239;48.594;8.598;2022-07-10T04:32:33;13.60;99.90
16263;DHT22;8239;48.594;8.598;2022-07-10T04:35:00;13.60;99.90
16263;DHT22;8239;48.594;8.598;2022-07-10T04:37:27;13.70;99.90
16263;DHT22;8239;48.594;8.598;2022-07-10T04:39:54;13.90;99.90
16263;DHT22;8239;48.594;8.598;2022-07-10T04:42:21;13.90;99.90
16263;DHT22;8239;48.594;8.598;2022-07-10T04:44:48;14.00;99.90
16263;DHT22;8239;48.594;8.598;2022-07-10T04:47:17;14.00;99.90
16263;DHT22;8239;48.594;8.598;2022-07-10T04:49:44;14.10;99.90
16263;DHT22;8239;48.594;8.598;2022-07-10T04:52:11;14.10;99.90
16263;DHT22;8239;48.594;8.598;2022-07-10T04:54:38;14.10;99.90
16263;DHT22;8239;48.594;8.598;2022-07-10T04:57:05;14.20;99.90
16263;DHT22;8239;48.594;8.598;2022-07-10T04:59:32;14.20;99.90
16263;DHT22;8239;48.594;8.598;2022-07-10T05:01:59;14.30;99.90
16263;DHT22;8239;48.594;8.598;2022-07-10T05:04:27;14.40;99.90
16263;DHT22;8239;48.594;8.598;2022-07-10T05:06:54;14.40;99.90
16263;DHT22;8239;48.594;8.598;2022-07-10T05:09:21;14.50;99.90
16263;DHT22;8239;48.594;8.598;2022-07-10T05:11:48;14.60;99.90
16263;DHT22;8239;48.594;8.598;2022-07-10T05:14:15;14.60;99.90
16263;DHT22;8239;48.594;8.598;2022-07-10T05:16:42;14.60;99.90
16263;DHT22;8239;48.594;8.598;2022-07-10T05:19:09;14.70;99.90
16263;DHT22;8239;48.594;8.598;2022-07-10T05:21:38;14.80;99.90
16263;DHT22;8239;48.594;8.598;2022-07-10T05:24:05;14.90;99.90
16263;DHT22;8239;48.594;8.598;2022-07-10T05:26:32;15.00;99.90
16263;DHT22;8239;48.594;8.598;2022-07-10T05:29:01;15.10;99.90
16263;DHT22;8239;48.594;8.598;2022-07-10T05:31:28;15.20;99.90
16263;DHT22;8239;48.594;8.598;2022-07-10T05:33:55;15.30;99.90
16263;DHT22;8239;48.594;8.598;2022-07-10T05:36:22;15.50;99.90
16263;DHT22;8239;48.594;8.598;2022-07-10T05:38:51;15.60;99.90
16263;DHT22;8239;48.594;8.598;2022-07-10T05:41:18;15.80;99.90
16263;DHT22;8239;48.594;8.598;2022-07-10T05:43:45;15.90;99.90
16263;DHT22;8239;48.594;8.598;2022-07-10T05:46:12;16.00;99.90
16263;DHT22;8239;48.594;8.598;2022-07-10T05:48:39;15.90;99.90
16263;DHT22;8239;48.594;8.598;2022-07-10T05:51:06;15.80;99.90
16263;DHT22;8239;48.594;8.598;2022-07-10T05:53:33;15.80;99.90
16263;DHT22;8239;48.594;8.598;2022-07-10T05:56:02;15.70;99.90
16263;DHT22;8239;48.594;8.598;2022-07-10T05:58:29;15.50;99.90
16263;DHT22;8239;48.594;8.598;2022-07-10T06:00:56;15.40;99.90
16263;DHT22;8239;48.594;8.598;2022-07-10T06:03:23;15.40;99.90
16263;DHT22;8239;48.594;8.598;2022-07-10T06:05:50;15.30;99.90
16263;DHT22;8239;48.594;8.598;2022-07-10T06:08:17;15.30;99.90
16263;DHT22;8239;48.594;8.598;2022-07-10T06:10:44;15.30;99.90
16263;DHT22;8239;48.594;8.598;2022-07-10T06:13:12;15.40;99.90
16263;DHT22;8239;48.594;8.598;2022-07-10T06:15:39;15.50;99.90
16263;DHT22;8239;48.594;8.598;2022-07-10T06:18:06;15.70;99.90
16263;DHT22;8239;48.594;8.598;2022-07-10T06:20:33;15.90;99.90
16263;DHT22;8239;48.594;8.598;2022-07-10T06:23:00;16.10;99.90
16263;DHT22;8239;48.594;8.598;2022-07-10T06:25:28;16.30;99.90
16263;DHT22;8239;48.594;8.598;2022-07-10T06:27:54;16.70;99.90
16263;DHT22;8239;48.594;8.598;2022-07-10T06:30:23;17.10;99.90
16263;DHT22;8239;48.594;8.598;2022-07-10T06:32:50;17.50;99.90
16263;DHT22;8239;48.594;8.598;2022-07-10T06:35:17;18.00;99.90
16263;DHT22;8239;48.594;8.598;2022-07-10T06:37:44;18.40;99.90
16263;DHT22;8239;48.594;8.598;2022-07-10T06:40:13;18.80;99.90
16263;DHT22;8239;48.594;8.598;2022-07-10T06:42:40;19.30;99.50
16263;DHT22;8239;48.594;8.598;2022-07-10T06:45:08;19.50;98.30
16263;DHT22;8239;48.594;8.598;2022-07-10T06:47:37;19.70;97.40
16263;DHT22;8239;48.594;8.598;2022-07-10T06:50:22;19.80;96.50
16263;DHT22;8239;48.594;8.598;2022-07-10T06:52:49;19.70;95.70
16263;DHT22;8239;48.594;8.598;2022-07-10T06:55:18;19.40;94.60
16263;DHT22;8239;48.594;8.598;2022-07-10T06:57:45;19.10;94.70
16263;DHT22;8239;48.594;8.598;2022-07-10T07:00:13;18.70;94.80
16263;DHT22;8239;48.594;8.598;2022-07-10T07:02:42;18.40;95.20
16263;DHT22;8239;48.594;8.598;2022-07-10T07:05:09;18.10;95.60
16263;DHT22;8239;48.594;8.598;2022-07-10T07:07:37;17.90;96.30
16263;DHT22;8239;48.594;8.598;2022-07-10T07:10:05;17.80;96.40
16263;DHT22;8239;48.594;8.598;2022-07-10T07:12:32;17.80;96.80
16263;DHT22;8239;48.594;8.598;2022-07-10T07:14:59;17.90;97.10
16263;DHT22;8239;48.594;8.598;2022-07-10T07:17:26;18.10;97.50
16263;DHT22;8239;48.594;8.598;2022-07-10T07:20:01;18.60;96.80
16263;DHT22;8239;48.594;8.598;2022-07-10T07:22:45;19.00;96.00
16263;DHT22;8239;48.594;8.598;2022-07-10T07:25:30;19.50;94.70
16263;DHT22;8239;48.594;8.598;2022-07-10T07:27:57;19.70;93.20
16263;DHT22;8239;48.594;8.598;2022-07-10T07:30:24;19.90;92.80
16263;DHT22;8239;48.594;8.598;2022-07-10T07:32:51;20.50;92.70
16263;DHT22;8239;48.594;8.598;2022-07-10T07:35:19;21.50;92.00
16263;DHT22;8239;48.594;8.598;2022-07-10T07:37:47;22.60;90.50
16263;DHT22;8239;48.594;8.598;2022-07-10T07:40:18;23.50;84.80
16263;DHT22;8239;48.594;8.598;2022-07-10T07:42:46;23.90;79.40
16263;DHT22;8239;48.594;8.598;2022-07-10T07:45:13;23.90;76.40
16263;DHT22;8239;48.594;8.598;2022-07-10T07:47:44;23.80;73.80
16263;DHT22;8239;48.594;8.598;2022-07-10T07:50:12;23.70;72.30
16263;DHT22;8239;48.594;8.598;2022-07-10T07:52:41;23.60;72.10
16263;DHT22;8239;48.594;8.598;2022-07-10T07:55:09;23.80;70.30
16263;DHT22;8239;48.594;8.598;2022-07-10T07:57:36;24.10;70.00
16263;DHT22;8239;48.594;8.598;2022-07-10T08:00:04;24.50;69.80
16263;DHT22;8239;48.594;8.598;2022-07-10T08:02:32;25.50;68.80
16263;DHT22;8239;48.594;8.598;2022-07-10T08:04:59;26.80;63.70
16263;DHT22;8239;48.594;8.598;2022-07-10T08:07:33;28.10;59.50
16263;DHT22;8239;48.594;8.598;2022-07-10T08:10:02;29.20;55.70
16263;DHT22;8239;48.594;8.598;2022-07-10T08:12:30;29.40;52.80
16263;DHT22;8239;48.594;8.598;2022-07-10T08:14:57;28.90;51.80
16263;DHT22;8239;48.594;8.598;2022-07-10T08:17:24;28.70;52.40
16263;DHT22;8239;48.594;8.598;2022-07-10T08:19:51;28.70;51.90
16263;DHT22;8239;48.594;8.598;2022-07-10T08:22:18;29.20;52.10
16263;DHT22;8239;48.594;8.598;2022-07-10T08:24:45;29.90;49.70
16263;DHT22;8239;48.594;8.598;2022-07-10T08:27:14;30.10;47.90
16263;DHT22;8239;48.594;8.598;2022-07-10T08:29:41;29.90;46.10
16263;DHT22;8239;48.594;8.598;2022-07-10T08:32:08;29.60;46.60
16263;DHT22;8239;48.594;8.598;2022-07-10T08:34:36;29.80;47.00
16263;DHT22;8239;48.594;8.598;2022-07-10T08:37:03;29.90;46.10
16263;DHT22;8239;48.594;8.598;2022-07-10T08:39:30;29.90;45.20
16263;DHT22;8239;48.594;8.598;2022-07-10T08:41:58;29.50;45.40
16263;DHT22;8239;48.594;8.598;2022-07-10T08:44:28;29.10;45.60
16263;DHT22;8239;48.594;8.598;2022-07-10T08:46:56;28.60;46.60
16263;DHT22;8239;48.594;8.598;2022-07-10T08:49:27;28.10;47.10
16263;DHT22;8239;48.594;8.598;2022-07-10T08:51:57;27.70;47.90
16263;DHT22;8239;48.594;8.598;2022-07-10T08:54:27;27.30;48.30
16263;DHT22;8239;48.594;8.598;2022-07-10T08:56:56;27.00;49.60
16263;DHT22;8239;48.594;8.598;2022-07-10T08:59:24;26.80;49.30
16263;DHT22;8239;48.594;8.598;2022-07-10T09:01:52;26.40;50.20
16263;DHT22;8239;48.594;8.598;2022-07-10T09:04:22;26.10;50.40
16263;DHT22;8239;48.594;8.598;2022-07-10T09:06:51;26.00;50.60
16263;DHT22;8239;48.594;8.598;2022-07-10T09:09:18;25.90;51.50
16263;DHT22;8239;48.594;8.598;2022-07-10T09:11:45;26.00;50.60
16263;DHT22;8239;48.594;8.598;2022-07-10T09:14:14;26.00;50.40
16263;DHT22;8239;48.594;8.598;2022-07-10T09:16:43;26.10;51.00
16263;DHT22;8239;48.594;8.598;2022-07-10T09:19:19;26.70;51.10
16263;DHT22;8239;48.594;8.598;2022-07-10T09:21:47;27.90;50.00
16263;DHT22;8239;48.594;8.598;2022-07-10T09:24:15;29.50;48.00
16263;DHT22;8239;48.594;8.598;2022-07-10T09:26:58;30.90;45.80
16263;DHT22;8239;48.594;8.598;2022-07-10T09:29:26;32.00;43.20
16263;DHT22;8239;48.594;8.598;2022-07-10T09:31:54;33.20;41.50
16263;DHT22;8239;48.594;8.598;2022-07-10T09:34:37;33.60;39.10
16263;DHT22;8239;48.594;8.598;2022-07-10T09:37:20;33.60;38.30
16263;DHT22;8239;48.594;8.598;2022-07-10T09:39:58;32.80;37.90
16263;DHT22;8239;48.594;8.598;2022-07-10T09:42:27;31.90;38.90
16263;DHT22;8239;48.594;8.598;2022-07-10T09:45:16;31.30;40.30
16263;DHT22;8239;48.594;8.598;2022-07-10T09:47:44;30.70;40.90
16263;DHT22;8239;48.594;8.598;2022-07-10T09:50:24;30.50;41.20
16263;DHT22;8239;48.594;8.598;2022-07-10T09:52:52;29.90;41.90
16263;DHT22;8239;48.594;8.598;2022-07-10T09:55:20;29.20;43.20
16263;DHT22;8239;48.594;8.598;2022-07-10T09:57:53;28.80;43.90
16263;DHT22;8239;48.594;8.598;2022-07-10T10:00:23;28.50;44.40
16263;DHT22;8239;48.594;8.598;2022-07-10T10:02:55;28.40;45.10
16263;DHT22;8239;48.594;8.598;2022-07-10T10:05:32;28.30;44.60
16263;DHT22;8239;48.594;8.598;2022-07-10T10:08:03;28.40;45.80
16263;DHT22;8239;48.594;8.598;2022-07-10T10:10:32;28.90;44.50
16263;DHT22;8239;48.594;8.598;2022-07-10T10:13:03;29.20;44.10
16263;DHT22;8239;48.594;8.598;2022-07-10T10:15:35;29.40;43.70
16263;DHT22;8239;48.594;8.598;2022-07-10T10:18:03;29.20;43.10
16263;DHT22;8239;48.594;8.598;2022-07-10T10:20:32;28.80;43.10
16263;DHT22;8239;48.594;8.598;2022-07-10T10:23:09;28.80;44.30
16263;DHT22;8239;48.594;8.598;2022-07-10T10:25:38;29.00;44.60
16263;DHT22;8239;48.594;8.598;2022-07-10T10:28:08;29.20;44.40
16263;DHT22;8239;48.594;8.598;2022-07-10T10:30:37;29.40;44.10
16263;DHT22;8239;48.594;8.598;2022-07-10T10:33:45;29.70;43.70
16263;DHT22;8239;48.594;8.598;2022-07-10T10:39:01;29.60;43.10
16263;DHT22;8239;48.594;8.598;2022-07-10T10:41:30;29.20;43.40
16263;DHT22;8239;48.594;8.598;2022-07-10T10:44:19;29.20;43.80
16263;DHT22;8239;48.594;8.598;2022-07-10T10:46:57;29.20;44.10
16263;DHT22;8239;48.594;8.598;2022-07-10T10:49:47;29.20;43.00
16263;DHT22;8239;48.594;8.598;2022-07-10T10:52:17;29.40;42.10
16263;DHT22;8239;48.594;8.598;2022-07-10T10:55:02;29.60;40.80
16263;DHT22;8239;48.594;8.598;2022-07-10T10:57:36;29.70;41.90
16263;DHT22;8239;48.594;8.598;2022-07-10T11:00:06;29.60;41.20
16263;DHT22;8239;48.594;8.598;2022-07-10T11:02:35;29.70;40.40
16263;DHT22;8239;48.594;8.598;2022-07-10T11:05:41;29.70;40.90
16263;DHT22;8239;48.594;8.598;2022-07-10T11:08:11;29.80;41.10
16263;DHT22;8239;48.594;8.598;2022-07-10T11:10:39;29.80;41.40
16263;DHT22;8239;48.594;8.598;2022-07-10T11:13:08;29.80;39.30
16263;DHT22;8239;48.594;8.598;2022-07-10T11:15:36;29.90;37.30
16263;DHT22;8239;48.594;8.598;2022-07-10T11:18:05;30.00;39.00
16263;DHT22;8239;48.594;8.598;2022-07-10T11:20:34;30.20;40.20
16263;DHT22;8239;48.594;8.598;2022-07-10T11:23:16;30.30;40.50
16263;DHT22;8239;48.594;8.598;2022-07-10T11:25:49;30.40;40.30
16263;DHT22;8239;48.594;8.598;2022-07-10T11:28:36;30.50;40.00
16263;DHT22;8239;48.594;8.598;2022-07-10T11:31:08;30.50;39.40
16263;DHT22;8239;48.594;8.598;2022-07-10T11:33:39;30.40;40.10
16263;DHT22;8239;48.594;8.598;2022-07-10T11:36:11;30.40;40.00
16263;DHT22;8239;48.594;8.598;2022-07-10T11:38:41;30.20;39.90
16263;DHT22;8239;48.594;8.598;2022-07-10T11:41:18;30.00;40.60
16263;DHT22;8239;48.594;8.598;2022-07-10T11:43:50;30.00;40.30
16263;DHT22;8239;48.594;8.598;2022-07-10T11:46:18;30.00;40.20
16263;DHT22;8239;48.594;8.598;2022-07-10T11:48:47;29.90;40.50
16263;DHT22;8239;48.594;8.598;2022-07-10T11:51:17;29.90;40.50
16263;DHT22;8239;48.594;8.598;2022-07-10T11:53:55;29.80;40.60
16263;DHT22;8239;48.594;8.598;2022-07-10T11:56:22;29.80;40.70
16263;DHT22;8239;48.594;8.598;2022-07-10T11:59:00;29.70;41.30
16263;DHT22;8239;48.594;8.598;2022-07-10T12:01:28;29.60;40.90
16263;DHT22;8239;48.594;8.598;2022-07-10T12:03:56;29.70;41.10
16263;DHT22;8239;48.594;8.598;2022-07-10T12:06:24;29.70;40.50
16263;DHT22;8239;48.594;8.598;2022-07-10T12:08:51;29.70;39.80
16263;DHT22;8239;48.594;8.598;2022-07-10T12:11:21;29.70;40.00
16263;DHT22;8239;48.594;8.598;2022-07-10T12:13:50;29.50;40.10
16263;DHT22;8239;48.594;8.598;2022-07-10T12:16:17;29.50;39.80
16263;DHT22;8239;48.594;8.598;2022-07-10T12:18:45;29.40;40.30
16263;DHT22;8239;48.594;8.598;2022-07-10T12:21:14;29.30;41.00
16263;DHT22;8239;48.594;8.598;2022-07-10T12:23:44;29.40;40.60
16263;DHT22;8239;48.594;8.598;2022-07-10T12:26:12;29.50;40.00
16263;DHT22;8239;48.594;8.598;2022-07-10T12:28:55;29.50;39.40
16263;DHT22;8239;48.594;8.598;2022-07-10T12:31:25;29.60;39.20
16263;DHT22;8239;48.594;8.598;2022-07-10T12:33:57;29.60;38.90
16263;DHT22;8239;48.594;8.598;2022-07-10T12:36:41;29.60;38.70
16263;DHT22;8239;48.594;8.598;2022-07-10T12:39:08;29.60;38.60
16263;DHT22;8239;48.594;8.598;2022-07-10T12:41:41;29.70;38.60
16263;DHT22;8239;48.594;8.598;2022-07-10T12:44:35;29.70;38.60
16263;DHT22;8239;48.594;8.598;2022-07-10T12:47:03;29.60;37.90
16263;DHT22;8239;48.594;8.598;2022-07-10T12:49:51;29.50;38.00
16263;DHT22;8239;48.594;8.598;2022-07-10T12:52:26;29.40;38.00
16263;DHT22;8239;48.594;8.598;2022-07-10T12:55:07;29.20;38.10
16263;DHT22;8239;48.594;8.598;2022-07-10T12:57:48;29.30;38.80
16263;DHT22;8239;48.594;8.598;2022-07-10T13:00:19;29.30;38.10
16263;DHT22;8239;48.594;8.598;2022-07-10T13:02:46;29.30;36.50
16263;DHT22;8239;48.594;8.598;2022-07-10T13:05:26;29.00;37.10
16263;DHT22;8239;48.594;8.598;2022-07-10T13:08:04;28.80;38.20
16263;DHT22;8239;48.594;8.598;2022-07-10T13:10:32;28.80;38.20
16263;DHT22;8239;48.594;8.598;2022-07-10T13:12:59;28.90;38.60
16263;DHT22;8239;48.594;8.598;2022-07-10T13:15:28;29.10;38.20
16263;DHT22;8239;48.594;8.598;2022-07-10T13:17:56;29.20;38.00
16263;DHT22;8239;48.594;8.598;2022-07-10T13:20:23;29.20;37.30
16263;DHT22;8239;48.594;8.598;2022-07-10T13:22:50;29.20;36.60
16263;DHT22;8239;48.594;8.598;2022-07-10T13:25:17;29.00;36.40
16263;DHT22;8239;48.594;8.598;2022-07-10T13:27:44;29.00;36.80
16263;DHT22;8239;48.594;8.598;2022-07-10T13:30:12;28.90;36.10
16263;DHT22;8239;48.594;8.598;2022-07-10T13:32:40;28.70;36.00
16263;DHT22;8239;48.594;8.598;2022-07-10T13:35:08;28.60;36.40
16263;DHT22;8239;48.594;8.598;2022-07-10T13:37:35;28.60;37.00
16263;DHT22;8239;48.594;8.598;2022-07-10T13:40:02;28.70;37.40
16263;DHT22;8239;48.594;8.598;2022-07-10T13:42:29;28.80;36.80
16263;DHT22;8239;48.594;8.598;2022-07-10T13:44:56;28.80;36.20
16263;DHT22;8239;48.594;8.598;2022-07-10T13:47:23;28.60;35.80
16263;DHT22;8239;48.594;8.598;2022-07-10T13:49:51;28.40;36.30
16263;DHT22;8239;48.594;8.598;2022-07-10T13:52:18;28.20;37.20
16263;DHT22;8239;48.594;8.598;2022-07-10T13:54:46;28.20;37.70
16263;DHT22;8239;48.594;8.598;2022-07-10T13:57:13;28.10;37.90
16263;DHT22;8239;48.594;8.598;2022-07-10T13:59:40;28.10;38.00
16263;DHT22;8239;48.594;8.598;2022-07-10T14:02:07;28.10;38.30
16263;DHT22;8239;48.594;8.598;2022-07-10T14:04:34;28.10;38.10
16263;DHT22;8239;48.594;8.598;2022-07-10T14:07:03;28.10;38.40
16263;DHT22;8239;48.594;8.598;2022-07-10T14:09:30;28.00;38.40
16263;DHT22;8239;48.594;8.598;2022-07-10T14:11:57;28.00;38.30
16263;DHT22;8239;48.594;8.598;2022-07-10T14:14:24;28.10;38.60
16263;DHT22;8239;48.594;8.598;2022-07-10T14:16:51;28.10;39.00
16263;DHT22;8239;48.594;8.598;2022-07-10T14:19:18;28.10;38.50
16263;DHT22;8239;48.594;8.598;2022-07-10T14:21:45;28.20;38.00
16263;DHT22;8239;48.594;8.598;2022-07-10T14:24:14;28.00;38.80
16263;DHT22;8239;48.594;8.598;2022-07-10T14:26:41;28.00;38.60
16263;DHT22;8239;48.594;8.598;2022-07-10T14:29:08;27.90;39.00
16263;DHT22;8239;48.594;8.598;2022-07-10T14:31:35;27.90;38.80
16263;DHT22;8239;48.594;8.598;2022-07-10T14:34:02;28.00;39.20
16263;DHT22;8239;48.594;8.598;2022-07-10T14:36:30;28.00;38.90
16263;DHT22;8239;48.594;8.598;2022-07-10T14:38:58;28.00;38.60
16263;DHT22;8239;48.594;8.598;2022-07-10T14:41:26;27.90;38.00
16263;DHT22;8239;48.594;8.598;2022-07-10T14:43:53;27.90;39.20
16263;DHT22;8239;48.594;8.598;2022-07-10T14:46:20;27.90;38.80
16263;DHT22;8239;48.594;8.598;2022-07-10T14:48:47;27.90;38.60
16263;DHT22;8239;48.594;8.598;2022-07-10T14:51:14;27.90;39.00
16263;DHT22;8239;48.594;8.598;2022-07-10T14:53:41;27.80;38.80
16263;DHT22;8239;48.594;8.598;2022-07-10T14:56:11;27.80;38.90
16263;DHT22;8239;48.594;8.598;2022-07-10T14:58:39;27.80;38.70
16263;DHT22;8239;48.594;8.598;2022-07-10T15:01:06;27.60;38.80
16263;DHT22;8239;48.594;8.598;2022-07-10T15:03:33;27.50;39.40
16263;DHT22;8239;48.594;8.598;2022-07-10T15:06:00;27.40;39.20
16263;DHT22;8239;48.594;8.598;2022-07-10T15:08:27;27.30;39.50
16263;DHT22;8239;48.594;8.598;2022-07-10T15:10:54;27.20;39.60
16263;DHT22;8239;48.594;8.598;2022-07-10T15:13:21;27.10;39.70
16263;DHT22;8239;48.594;8.598;2022-07-10T15:15:50;27.00;39.40
16263;DHT22;8239;48.594;8.598;2022-07-10T15:18:17;26.80;39.80
16263;DHT22;8239;48.594;8.598;2022-07-10T15:20:45;26.70;39.90
16263;DHT22;8239;48.594;8.598;2022-07-10T15:23:12;26.50;39.90
16263;DHT22;8239;48.594;8.598;2022-07-10T15:25:39;26.30;40.60
16263;DHT22;8239;48.594;8.598;2022-07-10T15:28:07;26.20;40.90
16263;DHT22;8239;48.594;8.598;2022-07-10T15:30:34;26.20;41.40
16263;DHT22;8239;48.594;8.598;2022-07-10T15:33:02;26.10;41.40
16263;DHT22;8239;48.594;8.598;2022-07-10T15:35:30;26.00;41.60
16263;DHT22;8239;48.594;8.598;2022-07-10T15:37:58;26.00;41.80
16263;DHT22;8239;48.594;8.598;2022-07-10T15:40:25;26.10;42.00
16263;DHT22;8239;48.594;8.598;2022-07-10T15:42:52;26.00;41.80
16263;DHT22;8239;48.594;8.598;2022-07-10T15:45:20;25.90;42.00
16263;DHT22;8239;48.594;8.598;2022-07-10T15:47:47;25.90;42.20
16263;DHT22;8239;48.594;8.598;2022-07-10T15:50:15;25.80;42.20
16263;DHT22;8239;48.594;8.598;2022-07-10T15:52:42;25.60;42.20
16263;DHT22;8239;48.594;8.598;2022-07-10T15:55:11;25.30;43.00
16263;DHT22;8239;48.594;8.598;2022-07-10T15:57:38;25.20;43.50
16263;DHT22;8239;48.594;8.598;2022-07-10T16:00:06;25.00;43.50